Time;durP1;ratioP1;P1;durP2;ratioP2;P2;SDS_P1;SDS_P2;PMS_P1;PMS_P2;Temp;Humidity;BMP_temperature;BMP_pressure;BME280_temperature;BME280_humidity;BME280_pressure;Samples;Min_cycle;Max_cycle;Signal;HPM_P1;HPM_P2
2023/06/09 00:13:26;;;;;;;9.80;4.23;;;;;;;24.28;73.99;100365.06;38776573;22;20353;-90
2023/06/09 00:28:31;;;;;;;12.30;5.45;;;;;;;24.16;75.17;100350.41;38806712;23;20020;-91
2023/06/09 00:43:34;;;;;;;10.60;4.90;;;;;;;23.99;77.74;100347.66;38824023;23;20055;-90
2023/06/09 00:58:37;;;;;;;11.63;4.97;;;;;;;24.10;75.00;100350.41;38772980;22;20112;-84
2023/06/09 01:13:55;;;;;;;13.32;4.63;;;;;;;24.18;75.04;100347.91;38606887;23;20028;-81
2023/06/09 01:28:59;;;;;;;13.60;5.03;;;;;;;24.27;72.93;100344.16;38603398;23;20351;-81
2023/06/09 01:44:01;;;;;;;10.10;4.38;;;;;;;24.17;73.38;100351.19;38611453;23;21640;-81
2023/06/09 01:59:08;;;;;;;8.90;4.05;;;;;;;24.64;70.19;100352.09;38586197;23;20390;-82
2023/06/09 02:14:10;;;;;;;9.32;4.50;;;;;;;24.43;70.41;100348.88;38599004;23;20416;-83
2023/06/09 02:29:12;;;;;;;20.40;6.35;;;;;;;24.36;70.50;100355.72;38625611;23;20485;-83
2023/06/09 02:44:15;;;;;;;16.67;6.63;;;;;;;24.34;73.31;100365.78;38621561;23;20100;-82
2023/06/09 02:59:17;;;;;;;12.25;5.28;;;;;;;24.48;74.52;100365.53;38620475;23;20028;-81
2023/06/09 03:14:20;;;;;;;12.98;6.47;;;;;;;25.03;77.58;100368.66;38598738;23;20673;-81
2023/06/09 03:29:22;;;;;;;17.77;7.53;;;;;;;25.49;76.65;100382.53;38615817;23;20028;-83
2023/06/09 03:44:24;;;;;;;7.07;3.90;;;;;;;25.96;70.52;100368.56;38612884;23;20025;-82
2023/06/09 03:59:26;;;;;;;11.20;5.32;;;;;;;25.98;69.99;100370.84;38627427;23;20021;-81
2023/06/09 04:14:28;;;;;;;19.92;4.53;;;;;;;26.39;68.31;100370.72;38627785;23;20020;-82
2023/06/09 04:29:32;;;;;;;13.00;4.13;;;;;;;27.00;64.74;100372.06;38618095;23;20028;-83
2023/06/09 04:44:35;;;;;;;7.07;3.58;;;;;;;27.65;61.42;100362.56;38609347;23;20056;-83
2023/06/09 04:59:39;;;;;;;8.40;3.00;;;;;;;27.94;55.78;100353.19;38610095;23;20099;-83
2023/06/09 05:14:44;;;;;;;12.90;3.50;;;;;;;28.74;51.61;100346.41;38615925;23;20399;-83
2023/06/09 05:29:46;;;;;;;13.32;3.38;;;;;;;29.26;49.02;100332.88;38579691;23;20027;-83
2023/06/09 05:44:48;;;;;;;7.13;2.97;;;;;;;29.77;47.05;100317.16;38593617;23;20034;-84
2023/06/09 05:59:50;;;;;;;6.60;2.70;;;;;;;30.09;44.79;100316.88;38563398;23;20025;-82
2023/06/09 06:14:52;;;;;;;10.85;5.38;;;;;;;30.94;41.75;100318.84;38588185;23;20110;-80
2023/06/09 06:29:54;;;;;;;9.43;2.70;;;;;;;31.20;41.76;100306.56;38590866;23;20076;-82
2023/06/09 06:44:57;;;;;;;4.85;2.33;;;;;;;31.74;39.46;100315.81;38621841;23;20378;-81
2023/06/09 06:59:59;;;;;;;7.68;2.15;;;;;;;32.11;38.62;100306.63;38592963;23;20024;-78
2023/06/09 07:15:05;;;;;;;6.47;2.47;;;;;;;32.63;35.27;100287.38;38602309;23;20462;-81
2023/06/09 07:30:08;;;;;;;6.00;1.80;;;;;;;32.78;34.35;100281.72;38591386;23;20016;-82
2023/06/09 07:45:11;;;;;;;5.13;1.90;;;;;;;33.26;33.42;100278.84;38603583;23;20024;-82
2023/06/09 08:00:15;;;;;;;3.60;1.60;;;;;;;33.86;32.41;100271.22;38588215;23;20473;-84
2023/06/09 08:15:18;;;;;;;5.25;1.80;;;;;;;33.88;31.45;100274.97;38610855;23;20450;-85
2023/06/09 08:30:20;;;;;;;5.80;1.70;;;;;;;33.97;31.74;100276.38;38614957;23;20079;-81
2023/06/09 08:45:23;;;;;;;3.70;1.98;;;;;;;35.04;30.45;100258.19;38562768;23;20079;-81
2023/06/09 09:00:25;;;;;;;11.40;1.90;;;;;;;34.78;30.01;100249.16;38591362;23;20552;-82
2023/06/09 09:15:27;;;;;;;6.97;2.03;;;;;;;35.11;29.80;100240.41;38586811;23;20024;-81
2023/06/09 09:30:57;;;;;;;5.70;1.92;;;;;;;36.45;29.00;100227.84;38590110;23;20020;-80
2023/06/09 09:46:04;;;;;;;3.63;1.80;;;;;;;36.57;29.51;100216.69;38536518;23;20354;-74
2023/06/09 10:01:10;;;;;;;6.05;1.92;;;;;;;36.97;29.08;100205.41;38574194;23;20025;-74
2023/06/09 10:16:12;;;;;;;5.53;1.77;;;;;;;37.56;29.11;100181.84;38581655;23;20116;-74
2023/06/09 10:31:18;;;;;;;3.58;1.80;;;;;;;37.68;28.48;100181.22;38580459;23;20016;-75
2023/06/09 10:46:44;;;;;;;6.18;1.85;;;;;;;37.17;28.64;100157.94;38575048;23;20024;-74
2023/06/09 11:02:10;;;;;;;4.15;1.63;;;;;;;38.45;27.59;100160.66;38589122;23;20025;-77
2023/06/09 11:17:51;;;;;;;3.53;1.65;;;;;;;36.12;29.09;100143.56;38527936;23;20028;-77
2023/06/09 11:33:00;;;;;;;3.05;1.85;;;;;;;35.42;30.31;100128.56;38580885;23;20028;-78
2023/06/09 11:48:05;;;;;;;6.03;1.83;;;;;;;34.50;31.16;100111.59;38579877;23;20017;-78
2023/06/09 12:03:09;;;;;;;5.50;2.17;;;;;;;33.76;32.32;100109.91;38576924;23;20027;-80
2023/06/09 12:18:12;;;;;;;2.42;1.75;;;;;;;34.01;31.96;100095.75;38586344;23;20024;-79
2023/06/09 12:33:17;;;;;;;3.55;1.75;;;;;;;33.86;32.41;100085.41;38581357;23;20496;-79
2023/06/09 12:48:19;;;;;;;3.72;1.60;;;;;;;33.59;32.24;100067.69;38579696;23;20032;-78
2023/06/09 13:03:21;;;;;;;3.38;1.67;;;;;;;33.23;32.69;100054.94;38574699;23;20430;-79
2023/06/09 13:18:24;;;;;;;7.57;2.05;;;;;;;33.43;32.53;100053.81;38538451;23;20355;-78
2023/06/09 13:33:26;;;;;;;3.25;1.67;;;;;;;33.33;32.38;100041.72;38547878;23;20350;-81
2023/06/09 13:48:28;;;;;;;5.53;1.83;;;;;;;32.96;32.96;100037.22;38590390;23;20335;-82
2023/06/09 14:03:30;;;;;;;3.70;2.22;;;;;;;33.17;33.42;100029.13;38600639;23;20021;-83
2023/06/09 14:18:33;;;;;;;5.30;1.77;;;;;;;33.12;33.39;100027.31;38599641;23;20017;-82
2023/06/09 14:33:35;;;;;;;3.20;1.73;;;;;;;33.11;33.42;100015.31;38602243;23;20332;-84
2023/06/09 14:48:37;;;;;;;3.15;1.73;;;;;;;33.09;33.48;100005.97;38565268;23;20447;-79
2023/06/09 15:03:39;;;;;;;8.40;2.85;;;;;;;32.91;33.43;99999.59;38562889;23;20035;-81
2023/06/09 15:18:42;;;;;;;5.88;2.20;;;;;;;32.60;34.40;99985.03;38591392;23;20021;-84
2023/06/09 15:33:44;;;;;;;5.22;2.15;;;;;;;32.41;34.44;99990.44;38604101;23;20055;-82
2023/06/09 15:48:46;;;;;;;4.57;2.30;;;;;;;32.19;34.33;99973.16;38572030;23;20537;-80
2023/06/09 16:03:48;;;;;;;3.97;2.13;;;;;;;32.01;34.74;99977.25;38592684;23;20541;-82
2023/06/09 16:18:50;;;;;;;8.63;1.90;;;;;;;31.70;35.32;99965.44;38559047;23;20024;-76
2023/06/09 16:34:11;;;;;;;6.75;2.65;;;;;;;31.70;35.68;99970.31;38586853;23;20034;-81
2023/06/09 16:49:13;;;;;;;4.55;2.10;;;;;;;31.12;36.27;99970.16;38570840;23;20026;-81
2023/06/09 17:04:15;;;;;;;2.90;1.85;;;;;;;30.70;36.82;99967.03;38600297;23;20032;-83
2023/06/09 17:19:18;;;;;;;5.85;2.35;;;;;;;30.45;37.11;99966.09;38595310;23;20027;-81
2023/06/09 17:34:20;;;;;;;9.98;2.85;;;;;;;30.19;37.92;99973.53;38593305;23;20020;-81
2023/06/09 17:49:23;;;;;;;7.88;2.42;;;;;;;29.88;38.70;99983.16;38566932;23;20028;-81
2023/06/09 18:04:25;;;;;;;;;;;;;;;30.02;38.88;99983.75;38588406;23;20024;-81
2023/06/09 18:19:27;;;;;;;7.05;2.70;;;;;;;29.51;38.81;99990.88;38563151;23;19923;-81
2023/06/09 18:34:29;;;;;;;;;;;;;;;29.86;39.62;100002.53;38599342;23;20028;-81
2023/06/09 18:49:32;;;;;;;5.32;2.92;;;;;;;29.19;39.39;100022.00;38601598;23;19947;-80
2023/06/09 19:04:34;;;;;;;7.93;3.13;;;;;;;28.99;40.37;100008.06;38583581;23;20033;-79
2023/06/09 19:19:36;;;;;;;7.63;3.50;;;;;;;28.84;40.76;100009.44;38589581;23;20021;-84
2023/06/09 19:34:38;;;;;;;7.67;3.53;;;;;;;28.77;40.82;100014.97;38590204;23;20031;-79
2023/06/09 19:49:40;;;;;;;7.50;3.40;;;;;;;28.65;41.49;100014.50;38591702;23;20020;-78
2023/06/09 20:04:42;;;;;;;9.80;3.37;;;;;;;28.42;42.23;99997.56;38594801;23;20025;-80
2023/06/09 20:19:45;;;;;;;7.90;4.00;;;;;;;28.23;43.07;99999.06;38567863;23;20023;-79
2023/06/09 20:34:48;;;;;;;7.70;3.53;;;;;;;27.90;43.61;100004.06;38586842;23;20107;-79
2023/06/09 20:49:50;;;;;;;7.85;3.40;;;;;;;27.73;44.21;100015.59;38583503;23;20027;-79
2023/06/09 21:04:51;;;;;;;8.57;4.53;;;;;;;27.71;44.88;100011.84;38558424;23;20024;-80
2023/06/09 21:19:55;;;;;;;9.00;3.43;;;;;;;27.32;46.29;100007.81;38558072;23;20017;-80
2023/06/09 21:34:57;;;;;;;9.95;4.35;;;;;;;27.22;47.00;100009.53;38583765;23;20020;-80
2023/06/09 21:50:00;;;;;;;7.63;3.27;;;;;;;27.25;48.10;99997.31;38554465;23;20027;-79
2023/06/09 22:05:02;;;;;;;6.83;3.73;;;;;;;27.08;49.72;99994.09;38582391;23;20028;-77
2023/06/09 22:20:05;;;;;;;10.90;4.13;;;;;;;27.14;49.64;99983.59;38579989;23;20016;-78
2023/06/09 22:35:07;;;;;;;15.07;4.83;;;;;;;26.48;54.36;99972.34;38578868;23;20476;-76
2023/06/09 22:50:11;;;;;;;;;;;;;;;26.53;62.68;99943.66;38579259;23;20095;-78
2023/06/09 23:05:40;;;;;;;15.60;6.40;;;;;;;26.08;62.79;99927.69;38578724;23;20365;-77
2023/06/09 23:20:39;;;;;;;16.42;5.50;;;;;;;25.79;64.40;99914.75;38576545;23;20017;-76
2023/06/09 23:35:41;;;;;;;13.60;5.37;;;;;;;25.79;64.50;99909.19;38579243;23;20025;-77
2023/06/09 23:50:43;;;;;;;11.05;3.80;;;;;;;25.78;64.58;99902.13;38579708;23;20096;-76
